Time;durP1;ratioP1;P1;durP2;ratioP2;P2;SDS_P1;SDS_P2;PMS_P1;PMS_P2;Temp;Humidity;BMP_temperature;BMP_pressure;BME280_temperature;BME280_humidity;BME280_pressure;Samples;Min_cycle;Max_cycle;Signal;HPM_P1;HPM_P2
2022/10/04 00:05:15;;;;;;;0.20;0.00;;;18.50;99.90;;;;;;21253042;28;20223;-68
2022/10/04 00:15:24;;;;;;;0.20;0.00;;;18.40;99.90;;;;;;21177174;28;20209;-67
2022/10/04 00:25:36;;;;;;;0.20;0.00;;;18.20;99.90;;;;;;21157795;28;20223;-67
2022/10/04 00:35:50;;;;;;;0.20;0.10;;;18.20;99.90;;;;;;21174873;28;20192;-68
2022/10/04 00:45:57;;;;;;;0.20;0.00;;;18.30;99.90;;;;;;21156055;28;20223;-68
2022/10/04 00:56:05;;;;;;;0.20;0.00;;;18.20;99.90;;;;;;21173120;28;20212;-68
2022/10/04 01:06:11;;;;;;;0.20;0.00;;;18.30;99.90;;;;;;21171776;28;20235;-68
2022/10/04 01:16:19;;;;;;;0.20;0.00;;;18.30;99.90;;;;;;21171635;28;20192;-68
2022/10/04 01:26:39;;;;;;;0.20;0.00;;;18.30;99.90;;;;;;21170552;28;20237;-68
2022/10/04 01:36:46;;;;;;;0.20;0.00;;;18.60;99.90;;;;;;21152150;28;20195;-67
2022/10/04 01:46:54;;;;;;;0.20;0.00;;;18.80;99.90;;;;;;21151451;28;20224;-68
2022/10/04 01:57:03;;;;;;;0.20;0.10;;;19.00;99.90;;;;;;21150937;28;20215;-69
2022/10/04 02:07:15;;;;;;;0.20;0.10;;;19.00;99.90;;;;;;21167298;28;20220;-68
2022/10/04 02:17:21;;;;;;;0.20;0.00;;;19.00;99.90;;;;;;21167358;28;20226;-67
2022/10/04 02:27:30;;;;;;;0.20;0.00;;;19.10;99.90;;;;;;21166787;28;20250;-68
2022/10/04 02:37:33;;;;;;;0.20;0.10;;;19.20;99.90;;;;;;21174293;28;20218;-67
2022/10/04 02:47:45;;;;;;;0.20;0.10;;;19.20;99.90;;;;;;21165486;28;20236;-67
2022/10/04 02:57:51;;;;;;;0.20;0.10;;;19.20;99.90;;;;;;21182300;28;20192;-67
2022/10/04 03:07:56;;;;;;;0.20;0.00;;;19.00;99.90;;;;;;21146484;28;20227;-68
2022/10/04 03:18:01;;;;;;;0.20;0.00;;;18.90;99.90;;;;;;21181144;28;20214;-68
2022/10/04 03:28:06;;;;;;;0.20;0.10;;;18.80;99.90;;;;;;21179658;28;20208;-69
2022/10/04 03:38:12;;;;;;;0.20;0.00;;;18.80;99.90;;;;;;21179203;28;20218;-68
2022/10/04 03:48:27;;;;;;;0.20;0.00;;;18.70;99.90;;;;;;21178081;28;20246;-68
2022/10/04 03:58:32;;;;;;;0.20;0.00;;;18.60;99.90;;;;;;21177891;28;20192;-67
2022/10/04 04:08:41;;;;;;;0.20;0.00;;;18.50;99.90;;;;;;21176254;28;20287;-68
2022/10/04 04:18:46;;;;;;;0.20;0.10;;;18.40;99.90;;;;;;21175647;28;20245;-67
2022/10/04 04:28:54;;;;;;;0.20;0.00;;;18.30;99.90;;;;;;21156696;28;20228;-68
2022/10/04 04:49:31;;;;;;;0.20;0.00;;;18.10;99.90;;;;;;21199479;28;20219;-67
2022/10/04 04:59:36;;;;;;;0.20;0.00;;;18.10;99.90;;;;;;21254231;28;20192;-67
2022/10/04 05:09:41;;;;;;;0.20;0.00;;;17.90;99.90;;;;;;21222938;28;20232;-69
2022/10/04 05:19:45;;;;;;;0.20;0.00;;;17.80;99.90;;;;;;21169926;28;20213;-68
2022/10/04 05:30:02;;;;;;;0.20;0.10;;;17.90;99.90;;;;;;21168648;28;20212;-68
2022/10/04 05:40:23;;;;;;;0.20;0.00;;;18.10;99.90;;;;;;21166489;28;20184;-68
2022/10/04 05:50:34;;;;;;;0.20;0.00;;;18.00;99.90;;;;;;21163998;28;20243;-69
2022/10/04 06:00:45;;;;;;;0.20;0.00;;;18.10;99.90;;;;;;21158267;28;20222;-68
2022/10/04 06:11:15;;;;;;;0.20;0.00;;;18.20;99.90;;;;;;21142925;28;20220;-67
2022/10/04 06:21:21;;;;;;;0.20;0.10;;;18.00;99.90;;;;;;21163409;28;20214;-69
2022/10/04 06:32:03;;;;;;;0.20;0.10;;;18.00;99.90;;;;;;21174098;28;20241;-69
2022/10/04 06:42:32;;;;;;;0.20;0.10;;;18.20;99.90;;;;;;21246763;28;20263;-68
2022/10/04 06:53:03;;;;;;;0.20;0.10;;;18.50;99.90;;;;;;21245914;28;20219;-68
2022/10/04 07:03:16;;;;;;;0.20;0.10;;;19.00;99.90;;;;;;21226394;28;20223;-68
2022/10/04 07:13:32;;;;;;;0.20;0.00;;;19.50;99.90;;;;;;21205196;28;20244;-68
2022/10/04 07:23:43;;;;;;;0.20;0.00;;;20.00;99.90;;;;;;21248765;28;20194;-68
2022/10/04 07:33:51;;;;;;;0.20;0.00;;;20.40;99.90;;;;;;21260926;28;20214;-68
2022/10/04 07:44:00;;;;;;;0.20;0.00;;;20.80;99.90;;;;;;21242776;28;20191;-69
2022/10/04 07:54:16;;;;;;;0.20;0.00;;;21.10;99.90;;;;;;21239479;28;20267;-69
2022/10/04 08:04:32;;;;;;;0.20;0.00;;;21.50;99.90;;;;;;21239515;28;20235;-68
2022/10/04 08:14:54;;;;;;;0.20;0.00;;;22.10;99.90;;;;;;21183938;28;20215;-69
2022/10/04 08:25:06;;;;;;;0.20;0.00;;;22.40;99.90;;;;;;21153657;28;20204;-68
2022/10/04 08:35:35;;;;;;;0.20;0.00;;;22.50;99.90;;;;;;21170073;28;20219;-68
2022/10/04 08:46:18;;;;;;;0.20;0.00;;;22.60;99.90;;;;;;21170365;28;20180;-68
2022/10/04 08:56:42;;;;;;;0.20;0.00;;;22.70;99.90;;;;;;21110139;28;20227;-67
2022/10/04 09:06:56;;;;;;;0.20;0.00;;;22.70;99.90;;;;;;21167289;28;20325;-67
2022/10/04 09:17:18;;;;;;;0.20;0.00;;;22.90;99.90;;;;;;21166943;28;20200;-68
2022/10/04 09:27:43;;;;;;;0.20;0.00;;;23.00;99.90;;;;;;21166411;28;20250;-69
2022/10/04 09:38:39;;;;;;;0.20;0.00;;;23.30;99.90;;;;;;21168492;28;20210;-68
2022/10/04 09:48:55;;;;;;;0.20;0.00;;;23.40;99.90;;;;;;21229172;28;20218;-68
2022/10/04 09:59:37;;;;;;;0.20;0.00;;;23.80;99.90;;;;;;21249712;28;20209;-69
2022/10/04 10:20:44;;;;;;;0.20;0.00;;;24.00;99.90;;;;;;21163406;28;20196;-69
2022/10/04 10:31:04;;;;;;;0.20;0.00;;;24.80;99.90;;;;;;21199046;28;20215;-67
2022/10/04 10:41:42;;;;;;;0.20;0.00;;;25.00;99.90;;;;;;21243298;28;20195;-69
2022/10/04 10:52:10;;;;;;;0.20;0.10;;;25.30;99.90;;;;;;21246910;28;20248;-68
2022/10/04 11:02:36;;;;;;;0.20;0.00;;;25.50;99.90;;;;;;21260504;28;20223;-67
2022/10/04 11:13:20;;;;;;;0.20;0.00;;;26.50;99.90;;;;;;21185956;28;20238;-69
2022/10/04 11:24:07;;;;;;;0.20;0.00;;;27.00;99.90;;;;;;21133576;28;20192;-68
2022/10/04 11:34:38;;;;;;;0.20;0.00;;;27.10;99.90;;;;;;21158453;28;20238;-67
2022/10/04 11:45:23;;;;;;;0.20;0.00;;;27.40;99.90;;;;;;21175402;28;20218;-68
2022/10/04 11:55:57;;;;;;;0.20;0.00;;;27.80;99.90;;;;;;21092101;28;20276;-68
2022/10/04 12:06:16;;;;;;;0.20;0.00;;;27.90;99.90;;;;;;21139602;28;20232;-71
2022/10/04 12:16:56;;;;;;;0.20;0.00;;;27.80;99.90;;;;;;21171779;28;20219;-69
2022/10/04 12:27:51;;;;;;;0.20;0.00;;;27.90;99.90;;;;;;21153098;28;20188;-71
2022/10/04 12:38:36;;;;;;;0.20;0.00;;;27.60;99.90;;;;;;21063396;28;20238;-69
2022/10/04 12:48:53;;;;;;;0.20;0.05;;;27.90;99.90;;;;;;21153964;28;20224;-69
2022/10/04 12:59:30;;;;;;;0.20;0.00;;;28.80;99.90;;;;;;21169113;28;20199;-68
2022/10/04 13:09:48;;;;;;;0.20;0.00;;;28.60;99.90;;;;;;21166238;28;20235;-69
2022/10/04 13:20:33;;;;;;;0.20;0.00;;;29.20;99.90;;;;;;21167175;28;20190;-70
2022/10/04 13:30:46;;;;;;;0.20;0.00;;;29.90;99.90;;;;;;21131205;28;20216;-70
2022/10/04 13:41:05;;;;;;;0.20;0.10;;;28.80;99.90;;;;;;21164451;28;20199;-69
2022/10/04 13:51:28;;;;;;;0.20;0.00;;;29.10;99.90;;;;;;21210586;28;20212;-66
2022/10/04 14:02:09;;;;;;;0.20;0.00;;;28.40;99.90;;;;;;21223276;28;20218;-69
2022/10/04 14:12:41;;;;;;;0.20;0.00;;;29.30;99.90;;;;;;21237895;28;20226;-69
2022/10/04 14:23:00;;;;;;;0.25;0.10;;;28.40;99.90;;;;;;21221688;28;20218;-68
2022/10/04 14:33:39;;;;;;;0.20;0.00;;;29.80;99.90;;;;;;21222266;28;20250;-69
2022/10/04 14:44:27;;;;;;;0.20;0.00;;;29.70;99.90;;;;;;21222153;28;20187;-68
2022/10/04 14:54:42;;;;;;;0.20;0.00;;;29.40;99.90;;;;;;21225001;28;20248;-69
2022/10/04 15:05:08;;;;;;;0.20;0.00;;;30.00;99.90;;;;;;21238438;28;20218;-69
2022/10/04 15:15:41;;;;;;;0.20;0.00;;;29.60;99.90;;;;;;21236757;28;20510;-67
2022/10/04 15:25:47;;;;;;;0.20;0.00;;;29.70;99.90;;;;;;21219040;28;20187;-69
2022/10/04 15:36:10;;;;;;;0.20;0.00;;;28.90;99.90;;;;;;21225300;28;20238;-69
2022/10/04 15:46:46;;;;;;;0.20;0.00;;;27.40;99.90;;;;;;21245425;28;20192;-69
2022/10/04 15:56:55;;;;;;;0.20;0.10;;;27.00;99.90;;;;;;21253218;28;20215;-68
2022/10/04 16:07:13;;;;;;;0.20;0.00;;;26.00;99.90;;;;;;21254803;28;20295;-67
2022/10/04 16:17:43;;;;;;;0.20;0.00;;;24.60;99.90;;;;;;21252835;28;20470;-68
2022/10/04 16:28:06;;;;;;;0.20;0.10;;;24.20;99.90;;;;;;21236655;28;20196;-67
2022/10/04 16:38:24;;;;;;;0.20;0.00;;;24.20;99.90;;;;;;21229892;28;20195;-67
2022/10/04 16:48:38;;;;;;;0.20;0.00;;;23.70;99.90;;;;;;21252395;28;20223;-69
2022/10/04 16:58:48;;;;;;;0.20;0.00;;;23.60;99.90;;;;;;21232826;28;20191;-68
2022/10/04 17:09:11;;;;;;;0.20;0.00;;;23.30;99.90;;;;;;21250008;27;20406;-68
2022/10/04 17:19:32;;;;;;;0.20;0.00;;;23.00;99.90;;;;;;21244364;28;20183;-67
2022/10/04 17:30:01;;;;;;;0.20;0.00;;;22.90;99.90;;;;;;21224854;28;20215;-69
2022/10/04 17:40:27;;;;;;;0.20;0.00;;;22.70;99.90;;;;;;21221607;28;20192;-70
2022/10/04 18:01:06;;;;;;;0.20;0.00;;;22.50;99.90;;;;;;21242258;28;20186;-69
2022/10/04 18:11:22;;;;;;;0.20;0.00;;;22.50;99.90;;;;;;21240722;28;20211;-68
2022/10/04 18:21:28;;;;;;;0.20;0.00;;;22.20;99.90;;;;;;21225353;28;20191;-68
2022/10/04 18:31:42;;;;;;;0.20;0.00;;;21.90;99.90;;;;;;21225717;28;20219;-68
2022/10/04 18:42:01;;;;;;;0.20;0.00;;;21.00;99.90;;;;;;21154861;28;20202;-67
2022/10/04 18:52:20;;;;;;;0.20;0.00;;;20.80;99.90;;;;;;21245443;28;20215;-69
2022/10/04 19:02:31;;;;;;;0.20;0.00;;;20.50;99.90;;;;;;21243693;28;20265;-69
2022/10/04 19:12:48;;;;;;;0.20;0.10;;;20.50;99.90;;;;;;21224406;28;20227;-68
2022/10/04 19:23:01;;;;;;;0.20;0.00;;;20.20;99.90;;;;;;21238444;28;20184;-70
2022/10/04 19:33:17;;;;;;;0.20;0.00;;;20.10;99.90;;;;;;21255814;28;20227;-70
2022/10/04 19:43:32;;;;;;;0.20;0.10;;;19.90;99.90;;;;;;21259149;28;20233;-69
2022/10/04 19:53:43;;;;;;;0.20;0.00;;;19.80;99.90;;;;;;21240374;28;20222;-70
2022/10/04 20:04:33;;;;;;;0.20;0.10;;;19.60;99.90;;;;;;21257800;28;20219;-69
2022/10/04 20:14:53;;;;;;;0.20;0.10;;;19.40;99.90;;;;;;21247515;28;20223;-70
2022/10/04 20:24:58;;;;;;;0.20;0.00;;;19.20;99.90;;;;;;21238633;28;20196;-69
2022/10/04 20:35:04;;;;;;;0.20;0.10;;;19.10;99.90;;;;;;21267772;27;20211;-69
2022/10/04 20:45:27;;;;;;;0.20;0.00;;;19.20;99.90;;;;;;21284763;27;20179;-70
2022/10/04 20:55:33;;;;;;;0.20;0.10;;;19.10;99.90;;;;;;21238308;28;20215;-69
2022/10/04 21:05:39;;;;;;;0.20;0.00;;;18.90;99.90;;;;;;21256847;27;20241;-70
2022/10/04 21:15:55;;;;;;;0.20;0.00;;;18.80;99.90;;;;;;21250747;28;20211;-70
2022/10/04 21:26:21;;;;;;;0.20;0.00;;;18.80;99.90;;;;;;21252639;28;20190;-71
2022/10/04 21:36:25;;;;;;;0.20;0.00;;;18.80;99.90;;;;;;21258696;27;20223;-71
2022/10/04 21:46:30;;;;;;;0.20;0.10;;;18.80;99.90;;;;;;21260025;27;20214;-70
2022/10/04 21:56:34;;;;;;;0.20;0.10;;;19.10;99.90;;;;;;21239164;27;20239;-70
2022/10/04 22:06:40;;;;;;;0.20;0.00;;;19.00;99.90;;;;;;21251876;28;20273;-70
2022/10/04 22:16:43;;;;;;;0.20;0.10;;;18.90;99.90;;;;;;21257136;27;20241;-70
2022/10/04 22:26:49;;;;;;;0.20;0.00;;;18.80;99.90;;;;;;21246911;28;20190;-69
2022/10/04 22:36:53;;;;;;;0.20;0.10;;;18.80;99.90;;;;;;21244783;28;20222;-69
2022/10/04 22:47:01;;;;;;;0.20;0.00;;;18.80;99.90;;;;;;21230818;28;20213;-68
2022/10/04 22:57:04;;;;;;;0.20;0.00;;;19.10;99.90;;;;;;21241711;28;20233;-68
2022/10/04 23:07:09;;;;;;;0.20;0.00;;;19.10;99.90;;;;;;21260970;28;20226;-68
2022/10/04 23:17:22;;;;;;;0.20;0.10;;;19.00;99.90;;;;;;21246608;28;20215;-68
2022/10/04 23:27:28;;;;;;;0.20;0.10;;;19.10;99.90;;;;;;21260740;28;20212;-69
2022/10/04 23:37:32;;;;;;;0.20;0.10;;;18.90;99.90;;;;;;21241875;28;20227;-70
2022/10/04 23:47:38;;;;;;;0.20;0.00;;;18.70;99.90;;;;;;21243906;28;20196;-69
2022/10/04 23:57:42;;;;;;;0.20;0.00;;;18.50;99.90;;;;;;21242922;28;20211;-70
